Time;durP1;ratioP1;P1;durP2;ratioP2;P2;SDS_P1;SDS_P2;PMS_P1;PMS_P2;Temp;Humidity;BMP_temperature;BMP_pressure;BME280_temperature;BME280_humidity;BME280_pressure;Samples;Min_cycle;Max_cycle;Signal;HPM_P1;HPM_P2
2022/08/02 00:00:08;;;;;;;5.03;4.20;;;;;;;;;;5041277;28;20206;-73
2022/08/02 00:02:35;;;;;;;6.57;4.70;;;;;;;;;;5044818;28;20209;-71
2022/08/02 00:05:02;;;;;;;4.77;4.27;;;;;;;;;;5040967;28;20709;-71
2022/08/02 00:07:29;;;;;;;4.80;3.97;;;;;;;;;;5045390;28;20241;-71
2022/08/02 00:09:56;;;;;;;5.27;4.17;;;;;;;;;;5039283;28;20627;-71
2022/08/02 00:12:24;;;;;;;5.70;4.20;;;;;;;;;;5040929;28;20199;-70
2022/08/02 00:14:51;;;;;;;5.30;3.90;;;;;;;;;;5040785;28;20203;-71
2022/08/02 00:17:20;;;;;;;9.03;4.20;;;;;;;;;;5042102;28;20226;-70
2022/08/02 00:19:47;;;;;;;6.50;4.40;;;;;;;;;;5042314;28;20209;-71
2022/08/02 00:22:14;;;;;;;5.97;4.40;;;;;;;;;;5043170;28;20286;-71
2022/08/02 00:24:41;;;;;;;5.90;4.30;;;;;;;;;;5043460;28;20229;-71
2022/08/02 00:27:08;;;;;;;5.80;4.10;;;;;;;;;;5041755;28;20705;-71
2022/08/02 00:29:36;;;;;;;5.37;4.00;;;;;;;;;;5041015;28;20681;-71
2022/08/02 00:32:03;;;;;;;5.13;4.20;;;;;;;;;;5042358;28;20295;-71
2022/08/02 00:34:32;;;;;;;9.07;4.30;;;;;;;;;;5041451;28;20282;-71
2022/08/02 00:36:59;;;;;;;4.73;4.23;;;;;;;;;;5039208;28;20227;-71
2022/08/02 00:39:26;;;;;;;7.47;4.50;;;;;;;;;;5041455;28;20204;-71
2022/08/02 00:41:53;;;;;;;5.43;4.30;;;;;;;;;;5041693;28;20199;-71
2022/08/02 00:44:21;;;;;;;5.43;4.00;;;;;;;;;;5044868;28;20203;-71
2022/08/02 00:46:48;;;;;;;7.77;4.50;;;;;;;;;;5039084;28;20228;-71
2022/08/02 00:49:15;;;;;;;8.93;4.97;;;;;;;;;;5039945;28;20663;-71
2022/08/02 00:51:44;;;;;;;4.67;4.17;;;;;;;;;;5040097;28;20226;-70
2022/08/02 00:54:11;;;;;;;5.37;4.80;;;;;;;;;;5040027;28;20195;-71
2022/08/02 00:56:38;;;;;;;7.60;4.30;;;;;;;;;;5041138;28;20332;-71
2022/08/02 00:59:06;;;;;;;4.37;3.90;;;;;;;;;;5041704;28;20199;-71
2022/08/02 01:01:42;;;;;;;6.50;4.70;;;;;;;;;;5040188;28;20207;-70
2022/08/02 01:04:10;;;;;;;4.67;4.10;;;;;;;;;;5042475;28;20237;-71
2022/08/02 01:06:38;;;;;;;5.67;4.10;;;;;;;;;;5040477;28;20463;-70
2022/08/02 01:09:06;;;;;;;5.67;4.33;;;;;;;;;;5041562;28;20208;-71
2022/08/02 01:11:34;;;;;;;4.63;4.03;;;;;;;;;;5038864;28;20290;-71
2022/08/02 01:14:05;;;;;;;5.53;4.07;;;;;;;;;;5040615;28;20207;-71
2022/08/02 01:16:34;;;;;;;5.43;3.80;;;;;;;;;;5043136;28;20709;-71
2022/08/02 01:19:05;;;;;;;5.97;4.00;;;;;;;;;;5038417;28;20315;-71
2022/08/02 01:21:36;;;;;;;5.23;4.10;;;;;;;;;;5039887;28;20207;-71
2022/08/02 01:24:19;;;;;;;4.63;3.90;;;;;;;;;;5039335;28;20666;-71
2022/08/02 01:26:49;;;;;;;6.40;4.10;;;;;;;;;;5044401;28;20265;-71
2022/08/02 01:29:20;;;;;;;6.93;4.27;;;;;;;;;;5042898;28;20207;-70
2022/08/02 01:31:50;;;;;;;6.00;3.97;;;;;;;;;;5039849;28;20205;-71
2022/08/02 01:34:19;;;;;;;7.47;4.40;;;;;;;;;;5041240;28;20203;-71
2022/08/02 01:36:48;;;;;;;6.00;4.10;;;;;;;;;;5041381;28;20216;-70
2022/08/02 01:39:18;;;;;;;5.13;3.80;;;;;;;;;;5038212;28;20207;-71
2022/08/02 01:41:45;;;;;;;5.70;4.30;;;;;;;;;;5039782;28;20681;-71
2022/08/02 01:44:14;;;;;;;7.37;4.30;;;;;;;;;;5041059;28;20207;-71
2022/08/02 01:46:43;;;;;;;5.30;4.60;;;;;;;;;;5036059;28;20230;-71
2022/08/02 01:49:12;;;;;;;5.13;3.93;;;;;;;;;;5036184;28;20207;-71
2022/08/02 01:54:27;;;;;;;5.90;4.20;;;;;;;;;;5036045;28;21871;-71
2022/08/02 01:56:56;;;;;;;6.70;4.50;;;;;;;;;;5038873;28;20230;-71
2022/08/02 01:59:24;;;;;;;5.37;4.40;;;;;;;;;;5036861;28;20210;-71
2022/08/02 02:01:54;;;;;;;5.27;4.27;;;;;;;;;;5036416;28;20203;-71
2022/08/02 02:04:22;;;;;;;6.67;4.17;;;;;;;;;;5040645;28;20203;-71
2022/08/02 02:06:50;;;;;;;6.73;4.67;;;;;;;;;;5038054;28;20242;-71
2022/08/02 02:09:17;;;;;;;6.30;4.10;;;;;;;;;;5039692;28;20206;-71
2022/08/02 02:11:46;;;;;;;5.03;4.20;;;;;;;;;;5038167;28;20207;-71
2022/08/02 02:14:14;;;;;;;6.07;4.33;;;;;;;;;;5036527;28;20200;-71
2022/08/02 02:16:42;;;;;;;7.60;4.53;;;;;;;;;;5037895;28;20225;-71
2022/08/02 02:19:15;;;;;;;8.13;4.50;;;;;;;;;;5037756;28;20207;-70
2022/08/02 02:21:42;;;;;;;10.23;4.60;;;;;;;;;;5039580;28;20211;-70
2022/08/02 02:24:09;;;;;;;6.63;4.17;;;;;;;;;;5037465;28;20215;-71
2022/08/02 02:26:37;;;;;;;5.47;4.57;;;;;;;;;;5038091;28;20605;-71
2022/08/02 02:29:07;;;;;;;7.63;4.50;;;;;;;;;;5041890;28;20605;-71
2022/08/02 02:31:36;;;;;;;4.97;4.23;;;;;;;;;;5042479;28;20652;-71
2022/08/02 02:34:05;;;;;;;7.07;4.50;;;;;;;;;;5037788;28;20206;-71
2022/08/02 02:36:34;;;;;;;6.03;4.30;;;;;;;;;;5044295;28;20748;-71
2022/08/02 02:39:03;;;;;;;5.93;4.10;;;;;;;;;;5041232;28;20222;-71
2022/08/02 02:41:30;;;;;;;6.40;4.07;;;;;;;;;;5043019;28;20199;-71
2022/08/02 02:43:59;;;;;;;5.50;4.27;;;;;;;;;;5041138;28;20707;-71
2022/08/02 02:46:27;;;;;;;5.57;4.47;;;;;;;;;;5044202;28;20231;-71
2022/08/02 02:48:54;;;;;;;6.10;4.50;;;;;;;;;;5043165;28;20207;-70
2022/08/02 02:51:22;;;;;;;5.47;4.37;;;;;;;;;;5045081;28;20294;-72
2022/08/02 02:53:51;;;;;;;6.20;4.47;;;;;;;;;;5040745;28;20691;-71
2022/08/02 02:56:18;;;;;;;5.10;4.60;;;;;;;;;;5040688;28;20219;-70
2022/08/02 02:58:46;;;;;;;5.70;4.77;;;;;;;;;;5042311;28;20725;-70
2022/08/02 03:01:29;;;;;;;6.03;3.70;;;;;;;;;;5045204;28;20213;-71
2022/08/02 03:03:57;;;;;;;5.67;4.27;;;;;;;;;;5040692;28;20218;-71
2022/08/02 03:06:24;;;;;;;11.83;5.00;;;;;;;;;;5043625;28;20720;-70
2022/08/02 03:08:53;;;;;;;6.33;4.43;;;;;;;;;;5043135;28;20200;-70
2022/08/02 03:11:20;;;;;;;7.57;4.50;;;;;;;;;;5040326;28;20294;-71
2022/08/02 03:13:47;;;;;;;6.03;4.50;;;;;;;;;;5040526;28;20209;-70
2022/08/02 03:16:15;;;;;;;5.63;4.53;;;;;;;;;;5039715;28;20219;-70
2022/08/02 03:18:44;;;;;;;10.60;4.80;;;;;;;;;;5042449;28;20217;-70
2022/08/02 03:21:13;;;;;;;4.77;4.13;;;;;;;;;;5038947;28;20225;-71
2022/08/02 03:23:41;;;;;;;5.77;4.57;;;;;;;;;;5040807;28;20302;-71
2022/08/02 03:26:10;;;;;;;6.20;4.30;;;;;;;;;;5043132;28;20563;-71
2022/08/02 03:28:37;;;;;;;6.07;4.67;;;;;;;;;;5042314;28;20199;-70
2022/08/02 03:31:04;;;;;;;6.60;4.63;;;;;;;;;;5042080;28;20647;-70
2022/08/02 03:33:32;;;;;;;5.63;4.37;;;;;;;;;;5042261;28;20299;-70
2022/08/02 03:36:00;;;;;;;8.93;4.83;;;;;;;;;;5041583;28;20225;-70
2022/08/02 03:38:27;;;;;;;11.47;4.47;;;;;;;;;;5039265;28;20196;-71
2022/08/02 03:40:56;;;;;;;6.23;4.40;;;;;;;;;;5041414;28;20555;-70
2022/08/02 03:43:26;;;;;;;4.90;4.40;;;;;;;;;;5038729;28;20284;-71
2022/08/02 03:45:53;;;;;;;4.70;3.90;;;;;;;;;;5039702;28;20237;-70
2022/08/02 03:48:21;;;;;;;5.70;4.10;;;;;;;;;;5041480;28;20684;-70
2022/08/02 03:50:48;;;;;;;5.90;4.67;;;;;;;;;;5041579;28;20199;-71
2022/08/02 03:53:17;;;;;;;5.67;4.60;;;;;;;;;;5041764;28;20293;-71
2022/08/02 03:55:44;;;;;;;5.40;4.40;;;;;;;;;;5045474;28;20223;-70
2022/08/02 03:58:17;;;;;;;5.03;3.97;;;;;;;;;;5040488;28;21500;-71
2022/08/02 04:00:46;;;;;;;6.40;4.40;;;;;;;;;;5043151;28;20203;-71
2022/08/02 04:03:13;;;;;;;5.27;4.50;;;;;;;;;;5037180;28;20211;-71
2022/08/02 04:05:40;;;;;;;6.00;4.80;;;;;;;;;;5045240;28;20218;-71
2022/08/02 04:08:08;;;;;;;5.83;4.27;;;;;;;;;;5042031;28;20210;-71
2022/08/02 04:11:29;;;;;;;9.40;4.70;;;;;;;;;;5044209;28;20581;-71
2022/08/02 04:13:23;;;;;;;7.77;4.47;;;;;;;;;;5042005;28;20205;-71
2022/08/02 04:15:54;;;;;;;6.47;4.77;;;;;;;;;;5037986;28;20215;-71
2022/08/02 04:18:23;;;;;;;5.47;4.50;;;;;;;;;;5040028;28;20206;-71
2022/08/02 04:20:50;;;;;;;5.60;4.07;;;;;;;;;;5044815;28;20210;-71
2022/08/02 04:23:18;;;;;;;10.60;4.67;;;;;;;;;;5042814;28;20226;-71
2022/08/02 04:25:46;;;;;;;6.80;4.30;;;;;;;;;;5043731;28;20227;-71
2022/08/02 04:28:14;;;;;;;6.03;4.53;;;;;;;;;;5042939;28;20658;-71
2022/08/02 04:30:41;;;;;;;9.50;4.57;;;;;;;;;;5044404;28;20209;-71
2022/08/02 04:33:10;;;;;;;7.50;4.60;;;;;;;;;;5041919;28;20207;-70
2022/08/02 04:35:37;;;;;;;6.20;4.20;;;;;;;;;;5041591;28;20225;-71
2022/08/02 04:38:05;;;;;;;4.60;3.60;;;;;;;;;;5038910;28;20217;-70
2022/08/02 04:40:32;;;;;;;5.07;3.93;;;;;;;;;;5042736;28;20242;-71
2022/08/02 04:42:59;;;;;;;5.20;3.30;;;;;;;;;;5042563;28;20298;-71
2022/08/02 04:45:27;;;;;;;5.33;3.23;;;;;;;;;;5039058;28;20222;-71
2022/08/02 04:47:54;;;;;;;5.50;3.40;;;;;;;;;;5040003;28;20228;-71
2022/08/02 04:50:23;;;;;;;11.13;3.80;;;;;;;;;;5040716;28;20210;-71
2022/08/02 04:52:50;;;;;;;5.77;3.33;;;;;;;;;;5043465;28;20211;-72
2022/08/02 04:55:17;;;;;;;18.27;4.40;;;;;;;;;;5041186;28;20246;-71
2022/08/02 04:57:56;;;;;;;7.77;3.90;;;;;;;;;;5041301;28;20210;-71
2022/08/02 05:00:24;;;;;;;10.37;4.20;;;;;;;;;;5041074;28;20217;-71
2022/08/02 05:02:52;;;;;;;6.43;4.03;;;;;;;;;;5041322;28;20673;-71
2022/08/02 05:05:20;;;;;;;6.27;3.77;;;;;;;;;;5040666;28;20208;-71
2022/08/02 05:07:48;;;;;;;5.47;3.83;;;;;;;;;;5042000;28;20296;-70
2022/08/02 05:10:16;;;;;;;8.33;3.67;;;;;;;;;;5041688;28;21291;-70
2022/08/02 05:12:43;;;;;;;8.83;4.10;;;;;;;;;;5040949;28;20216;-70
2022/08/02 05:15:12;;;;;;;8.13;3.90;;;;;;;;;;5039674;28;20207;-70
2022/08/02 05:17:39;;;;;;;7.60;3.80;;;;;;;;;;5038293;28;20206;-70
2022/08/02 05:20:06;;;;;;;7.87;3.70;;;;;;;;;;5043709;28;20207;-70
2022/08/02 05:22:34;;;;;;;7.77;4.17;;;;;;;;;;5038082;28;20215;-71
2022/08/02 05:25:02;;;;;;;7.37;3.93;;;;;;;;;;5043110;28;20226;-72
2022/08/02 05:27:31;;;;;;;10.47;3.83;;;;;;;;;;5042779;28;20223;-70
2022/08/02 05:29:59;;;;;;;11.57;4.10;;;;;;;;;;5039576;28;20369;-71
2022/08/02 05:32:26;;;;;;;3.67;3.20;;;;;;;;;;5041883;28;20286;-71
2022/08/02 05:34:53;;;;;;;7.00;3.47;;;;;;;;;;5041592;28;20199;-70
2022/08/02 05:37:20;;;;;;;5.47;2.97;;;;;;;;;;5039264;28;20224;-72
2022/08/02 05:39:47;;;;;;;8.00;2.90;;;;;;;;;;5036922;28;20199;-72
2022/08/02 05:42:16;;;;;;;7.33;3.40;;;;;;;;;;5034353;28;20209;-71
2022/08/02 05:44:43;;;;;;;5.73;2.90;;;;;;;;;;5034974;28;20210;-71
2022/08/02 05:47:10;;;;;;;8.27;3.20;;;;;;;;;;5038502;28;20253;-72
2022/08/02 05:49:37;;;;;;;4.13;3.10;;;;;;;;;;5038961;28;20650;-72
2022/08/02 05:52:09;;;;;;;4.13;3.47;;;;;;;;;;5041342;28;20214;-72
2022/08/02 05:54:40;;;;;;;4.77;3.10;;;;;;;;;;5041584;28;20203;-71
2022/08/02 05:57:11;;;;;;;3.93;3.00;;;;;;;;;;5032447;28;20223;-71
2022/08/02 05:59:45;;;;;;;3.60;2.97;;;;;;;;;;5036398;28;20549;-71
2022/08/02 06:02:15;;;;;;;4.70;2.90;;;;;;;;;;5036184;28;20330;-71
2022/08/02 06:04:49;;;;;;;4.87;2.90;;;;;;;;;;5038911;28;20211;-72
2022/08/02 06:07:17;;;;;;;4.20;3.10;;;;;;;;;;5038240;28;20573;-71
2022/08/02 06:09:44;;;;;;;7.53;3.10;;;;;;;;;;5032388;28;20306;-71
2022/08/02 06:12:12;;;;;;;3.10;2.63;;;;;;;;;;5035406;28;20225;-71
2022/08/02 06:14:42;;;;;;;4.70;2.73;;;;;;;;;;5036702;28;20691;-72
2022/08/02 06:17:09;;;;;;;4.10;2.80;;;;;;;;;;5033316;28;20310;-72
2022/08/02 06:19:38;;;;;;;5.50;2.57;;;;;;;;;;5036756;28;20577;-72
2022/08/02 06:22:14;;;;;;;6.20;2.67;;;;;;;;;;5036380;28;20210;-73
2022/08/02 06:24:43;;;;;;;4.10;2.50;;;;;;;;;;5034863;28;20198;-72
2022/08/02 06:27:11;;;;;;;5.07;2.77;;;;;;;;;;5036885;28;20606;-72
2022/08/02 06:29:38;;;;;;;5.67;2.80;;;;;;;;;;5036513;28;20207;-73
2022/08/02 06:32:08;;;;;;;6.23;2.43;;;;;;;;;;5037833;28;20203;-73
2022/08/02 06:34:37;;;;;;;3.83;2.50;;;;;;;;;;5036454;28;20214;-72
2022/08/02 06:37:07;;;;;;;3.20;2.40;;;;;;;;;;5034255;28;20234;-73
2022/08/02 06:39:43;;;;;;;3.47;2.30;;;;;;;;;;5036354;28;20212;-73
2022/08/02 06:42:12;;;;;;;2.63;2.00;;;;;;;;;;5038276;28;20211;-73
2022/08/02 06:44:40;;;;;;;4.10;2.43;;;;;;;;;;5037466;28;20576;-73
2022/08/02 06:47:08;;;;;;;3.30;2.47;;;;;;;;;;5037103;28;20227;-72
2022/08/02 06:49:35;;;;;;;3.87;2.30;;;;;;;;;;5037388;28;20297;-72
2022/08/02 06:52:03;;;;;;;5.60;2.97;;;;;;;;;;5033324;28;20207;-73
2022/08/02 06:54:30;;;;;;;3.53;2.70;;;;;;;;;;5032878;28;20203;-72
2022/08/02 06:56:57;;;;;;;5.60;3.00;;;;;;;;;;5037232;28;20214;-72
2022/08/02 06:59:24;;;;;;;4.20;2.70;;;;;;;;;;5037279;28;20214;-72
2022/08/02 07:01:53;;;;;;;3.57;2.63;;;;;;;;;;5037811;28;20210;-72
2022/08/02 07:04:21;;;;;;;3.70;2.43;;;;;;;;;;5033997;28;20266;-72
2022/08/02 07:06:48;;;;;;;2.97;2.23;;;;;;;;;;5041534;28;20258;-72
2022/08/02 07:09:16;;;;;;;2.40;2.10;;;;;;;;;;5037222;28;20208;-72
2022/08/02 07:11:43;;;;;;;3.40;2.30;;;;;;;;;;5041174;28;20258;-71
2022/08/02 07:14:10;;;;;;;4.60;2.00;;;;;;;;;;5038922;28;20205;-72
2022/08/02 07:16:38;;;;;;;3.00;2.03;;;;;;;;;;5038856;28;20245;-72
2022/08/02 07:19:05;;;;;;;4.77;2.57;;;;;;;;;;5041742;28;20231;-72
2022/08/02 07:21:34;;;;;;;5.33;2.33;;;;;;;;;;5041094;28;20228;-72
2022/08/02 07:24:01;;;;;;;4.70;2.30;;;;;;;;;;5041207;28;20211;-72
2022/08/02 07:26:28;;;;;;;5.33;2.10;;;;;;;;;;5042066;28;20329;-72
2022/08/02 07:28:57;;;;;;;3.23;1.93;;;;;;;;;;5045102;28;20227;-72
2022/08/02 07:31:24;;;;;;;2.73;1.90;;;;;;;;;;5042960;28;20200;-73
2022/08/02 07:33:51;;;;;;;3.67;1.70;;;;;;;;;;5042066;28;20207;-73
2022/08/02 07:36:18;;;;;;;3.60;1.77;;;;;;;;;;5038651;28;20245;-72
2022/08/02 07:38:48;;;;;;;3.03;1.90;;;;;;;;;;5042781;28;20210;-73
2022/08/02 07:41:15;;;;;;;4.68;2.00;;;;;;;;;;5040307;28;20215;-73
2022/08/02 07:43:43;;;;;;;6.88;2.00;;;;;;;;;;5037449;28;20298;-73
2022/08/02 07:46:10;;;;;;;2.85;1.80;;;;;;;;;;5044593;28;20568;-72
2022/08/02 07:48:37;;;;;;;4.30;1.70;;;;;;;;;;5040103;28;20353;-72
2022/08/02 07:51:04;;;;;;;5.85;1.75;;;;;;;;;;5045520;28;20213;-71
2022/08/02 07:53:32;;;;;;;6.47;1.83;;;;;;;;;;5043921;28;20733;-72
2022/08/02 07:56:00;;;;;;;3.43;1.67;;;;;;;;;;5046473;28;20576;-72
2022/08/02 07:58:27;;;;;;;3.50;1.37;;;;;;;;;;5042173;28;20408;-72
2022/08/02 08:00:54;;;;;;;3.42;1.60;;;;;;;;;;5040889;28;20210;-71
2022/08/02 08:03:21;;;;;;;7.38;1.60;;;;;;;;;;5039908;28;21965;-71
2022/08/02 08:05:49;;;;;;;11.05;2.00;;;;;;;;;;5035192;28;20223;-72
2022/08/02 08:08:16;;;;;;;4.72;1.88;;;;;;;;;;5037036;28;20307;-72
2022/08/02 08:10:43;;;;;;;4.63;1.40;;;;;;;;;;5042172;28;20216;-74
2022/08/02 08:13:12;;;;;;;3.42;1.45;;;;;;;;;;5038046;28;20670;-72
2022/08/02 08:15:39;;;;;;;3.55;1.45;;;;;;;;;;5037719;28;20311;-72
2022/08/02 08:18:06;;;;;;;3.25;1.63;;;;;;;;;;5042123;28;20197;-72
2022/08/02 08:20:33;;;;;;;4.13;1.10;;;;;;;;;;5042659;28;20201;-72
2022/08/02 08:23:00;;;;;;;2.55;1.23;;;;;;;;;;5043498;28;20626;-72
2022/08/02 08:25:28;;;;;;;2.22;1.10;;;;;;;;;;5040870;28;20676;-72
2022/08/02 08:27:55;;;;;;;2.80;0.90;;;;;;;;;;5039976;28;20722;-72
2022/08/02 08:30:24;;;;;;;1.98;0.98;;;;;;;;;;5030798;28;20215;-73
2022/08/02 08:32:51;;;;;;;3.05;0.90;;;;;;;;;;5040385;28;20659;-70
2022/08/02 08:35:18;;;;;;;2.30;1.17;;;;;;;;;;5039991;28;20290;-71
2022/08/02 08:37:45;;;;;;;2.10;1.17;;;;;;;;;;5042387;28;20199;-70
2022/08/02 08:40:13;;;;;;;2.33;1.10;;;;;;;;;;5036320;28;20420;-71
2022/08/02 08:42:40;;;;;;;4.20;1.30;;;;;;;;;;5037558;28;20210;-71
2022/08/02 08:45:08;;;;;;;2.77;1.10;;;;;;;;;;5040050;28;20203;-70
2022/08/02 08:47:39;;;;;;;2.83;1.52;;;;;;;;;;5038644;28;20235;-71
2022/08/02 08:50:07;;;;;;;1.83;1.23;;;;;;;;;;5040957;28;20662;-70
2022/08/02 08:52:36;;;;;;;2.30;1.20;;;;;;;;;;5036562;28;20213;-71
2022/08/02 08:55:05;;;;;;;3.47;1.60;;;;;;;;;;5038485;28;20227;-70
2022/08/02 08:57:32;;;;;;;3.97;1.50;;;;;;;;;;5040367;28;20212;-70
2022/08/02 09:00:00;;;;;;;3.87;1.63;;;;;;;;;;5046877;28;20206;-71
2022/08/02 09:02:27;;;;;;;2.70;1.47;;;;;;;;;;5043903;28;20220;-71
2022/08/02 09:04:56;;;;;;;3.50;1.53;;;;;;;;;;5041419;28;20215;-71
2022/08/02 09:07:23;;;;;;;4.33;1.47;;;;;;;;;;5045271;28;20227;-71
2022/08/02 09:09:50;;;;;;;3.77;1.63;;;;;;;;;;5041810;28;20235;-71
2022/08/02 09:12:18;;;;;;;2.73;1.50;;;;;;;;;;5041547;28;20213;-71
2022/08/02 09:14:46;;;;;;;3.03;1.53;;;;;;;;;;5037910;28;20203;-69
2022/08/02 09:17:13;;;;;;;3.13;1.53;;;;;;;;;;5036273;28;20228;-71
2022/08/02 09:19:41;;;;;;;3.67;1.70;;;;;;;;;;5040289;28;20205;-70
2022/08/02 09:22:09;;;;;;;2.03;1.63;;;;;;;;;;5036649;28;20194;-71
2022/08/02 09:24:44;;;;;;;5.03;1.63;;;;;;;;;;5039641;28;20213;-70
2022/08/02 09:27:12;;;;;;;4.50;1.70;;;;;;;;;;5038265;28;20214;-71
2022/08/02 09:29:41;;;;;;;3.43;1.50;;;;;;;;;;5037314;28;20588;-70
2022/08/02 09:32:08;;;;;;;1.97;1.30;;;;;;;;;;5037188;28;20690;-70
2022/08/02 09:34:49;;;;;;;5.70;1.50;;;;;;;;;;5042005;28;20209;-71
2022/08/02 09:37:25;;;;;;;4.70;1.60;;;;;;;;;;5034772;28;20226;-70
2022/08/02 09:39:53;;;;;;;2.07;1.37;;;;;;;;;;5039572;28;20202;-70
2022/08/02 09:42:20;;;;;;;5.73;2.10;;;;;;;;;;5043357;28;20242;-70
2022/08/02 09:44:54;;;;;;;2.53;1.63;;;;;;;;;;5036167;28;20303;-70
2022/08/02 09:47:21;;;;;;;2.00;1.80;;;;;;;;;;5036457;28;20223;-70
2022/08/02 09:49:49;;;;;;;3.57;1.90;;;;;;;;;;5035327;28;20206;-71
2022/08/02 09:52:16;;;;;;;3.07;1.80;;;;;;;;;;5035525;28;20595;-71
2022/08/02 09:54:44;;;;;;;6.47;2.03;;;;;;;;;;5034356;28;20209;-70
2022/08/02 09:57:12;;;;;;;2.83;1.70;;;;;;;;;;5042221;28;20221;-71
2022/08/02 09:59:52;;;;;;;4.53;1.77;;;;;;;;;;5036394;28;20191;-71
2022/08/02 10:02:19;;;;;;;2.13;1.50;;;;;;;;;;5034113;28;20600;-69
2022/08/02 10:04:46;;;;;;;3.30;1.70;;;;;;;;;;5036740;28;20688;-70
2022/08/02 10:07:14;;;;;;;2.20;1.63;;;;;;;;;;5036859;28;21256;-70
2022/08/02 10:09:41;;;;;;;2.53;1.60;;;;;;;;;;5041497;28;20218;-71
2022/08/02 10:12:10;;;;;;;2.03;1.83;;;;;;;;;;5040921;28;20202;-70
2022/08/02 10:14:38;;;;;;;3.97;1.60;;;;;;;;;;5041600;28;20219;-70
2022/08/02 10:17:07;;;;;;;2.13;1.83;;;;;;;;;;5045816;28;20313;-71
2022/08/02 10:19:34;;;;;;;2.77;1.60;;;;;;;;;;5041421;28;20301;-71
2022/08/02 10:22:02;;;;;;;4.70;1.60;;;;;;;;;;5039156;28;20203;-70
2022/08/02 10:24:31;;;;;;;4.57;1.80;;;;;;;;;;5037985;28;20282;-71
2022/08/02 10:26:59;;;;;;;1.97;1.53;;;;;;;;;;5043282;28;20231;-71
2022/08/02 10:29:31;;;;;;;4.07;1.90;;;;;;;;;;5042608;28;20669;-70
2022/08/02 10:32:01;;;;;;;3.00;1.50;;;;;;;;;;5039633;28;20206;-68
2022/08/02 10:34:32;;;;;;;2.70;1.70;;;;;;;;;;5035275;28;20205;-71
2022/08/02 10:37:02;;;;;;;2.33;1.70;;;;;;;;;;5039916;28;20314;-71
2022/08/02 10:39:29;;;;;;;3.10;1.60;;;;;;;;;;5041589;28;20200;-70
2022/08/02 10:41:56;;;;;;;2.90;1.73;;;;;;;;;;5035012;28;20277;-71
2022/08/02 10:44:25;;;;;;;2.30;1.43;;;;;;;;;;5034583;28;20199;-70
2022/08/02 10:46:53;;;;;;;5.50;1.60;;;;;;;;;;5037013;28;20230;-71
2022/08/02 10:49:21;;;;;;;1.87;1.40;;;;;;;;;;5037966;28;20251;-70
2022/08/02 10:52:12;;;;;;;2.23;1.50;;;;;;;;;;5037121;28;20225;-71
2022/08/02 10:54:40;;;;;;;4.57;1.90;;;;;;;;;;5040676;28;20210;-71
2022/08/02 10:57:21;;;;;;;2.67;1.70;;;;;;;;;;5043266;28;20219;-71
2022/08/02 10:59:48;;;;;;;4.97;1.60;;;;;;;;;;5042093;28;20213;-71
2022/08/02 11:02:33;;;;;;;7.83;1.40;;;;;;;;;;5043025;28;20491;-71
2022/08/02 11:05:06;;;;;;;3.30;1.87;;;;;;;;;;5039687;28;20230;-70
2022/08/02 11:07:35;;;;;;;2.40;1.60;;;;;;;;;;5043045;28;20267;-71
2022/08/02 11:10:17;;;;;;;3.07;1.60;;;;;;;;;;5040787;28;20310;-71
2022/08/02 11:12:59;;;;;;;1.73;1.30;;;;;;;;;;5039054;28;20203;-71
2022/08/02 11:15:26;;;;;;;4.47;1.83;;;;;;;;;;5042955;28;20685;-70
2022/08/02 11:17:55;;;;;;;3.13;1.30;;;;;;;;;;5039867;28;20207;-70
2022/08/02 11:20:23;;;;;;;2.93;1.47;;;;;;;;;;5039399;28;20230;-69
2022/08/02 11:22:51;;;;;;;5.93;1.77;;;;;;;;;;5039173;28;20555;-70
2022/08/02 11:25:35;;;;;;;6.87;1.40;;;;;;;;;;5039979;28;20654;-71
2022/08/02 11:28:08;;;;;;;2.07;1.50;;;;;;;;;;5040454;28;20207;-70
2022/08/02 11:30:36;;;;;;;2.87;1.73;;;;;;;;;;5043900;28;20203;-70
2022/08/02 11:33:05;;;;;;;5.40;1.47;;;;;;;;;;5041210;28;20206;-70
2022/08/02 11:35:33;;;;;;;1.70;1.20;;;;;;;;;;5037897;28;20199;-70
2022/08/02 11:38:13;;;;;;;2.17;1.70;;;;;;;;;;5041572;28;20669;-70
2022/08/02 11:40:40;;;;;;;2.77;1.50;;;;;;;;;;5039432;28;20207;-71
2022/08/02 11:43:16;;;;;;;3.17;1.40;;;;;;;;;;5036980;28;20207;-70
2022/08/02 11:45:43;;;;;;;3.53;1.03;;;;;;;;;;5037985;28;20818;-69
2022/08/02 11:48:12;;;;;;;1.77;1.10;;;;;;;;;;5040769;28;20211;-71
2022/08/02 11:50:39;;;;;;;1.07;0.90;;;;;;;;;;5044932;28;20294;-71
2022/08/02 11:53:13;;;;;;;3.47;1.27;;;;;;;;;;5041122;28;20361;-71
2022/08/02 11:55:40;;;;;;;1.17;0.97;;;;;;;;;;5039654;28;20223;-71
2022/08/02 11:58:10;;;;;;;2.40;1.20;;;;;;;;;;5043739;28;20211;-71
2022/08/02 12:00:38;;;;;;;5.80;1.20;;;;;;;;;;5040194;28;20199;-71
2022/08/02 12:03:06;;;;;;;1.53;1.07;;;;;;;;;;5037996;28;20253;-71
2022/08/02 12:05:35;;;;;;;2.93;1.40;;;;;;;;;;5038006;28;20207;-72
2022/08/02 12:08:06;;;;;;;3.60;1.30;;;;;;;;;;5039666;28;20207;-71
2022/08/02 12:10:33;;;;;;;1.93;1.20;;;;;;;;;;5037753;28;20286;-71
2022/08/02 12:13:01;;;;;;;3.57;1.17;;;;;;;;;;5042513;28;20282;-72
2022/08/02 12:15:32;;;;;;;3.17;1.17;;;;;;;;;;5038929;28;20199;-71
2022/08/02 12:20:57;;;;;;;1.77;1.10;;;;;;;;;;4985351;28;20672;-72
2022/08/02 12:23:25;;;;;;;2.43;1.30;;;;;;;;;;5024065;28;20246;-72
2022/08/02 12:26:01;;;;;;;1.60;1.20;;;;;;;;;;5041512;28;20234;-72
2022/08/02 12:28:29;;;;;;;2.73;1.13;;;;;;;;;;5039427;28;20226;-73
2022/08/02 12:30:57;;;;;;;2.60;1.27;;;;;;;;;;5041351;28;20196;-72
2022/08/02 12:33:25;;;;;;;1.03;0.90;;;;;;;;;;5043903;28;20230;-73
2022/08/02 12:35:52;;;;;;;2.57;1.20;;;;;;;;;;5040203;28;20311;-71
2022/08/02 12:38:21;;;;;;;4.40;0.90;;;;;;;;;;5043871;28;20688;-72
2022/08/02 12:40:49;;;;;;;1.53;1.10;;;;;;;;;;5037634;28;20299;-72
2022/08/02 12:43:20;;;;;;;2.23;1.20;;;;;;;;;;5044109;28;20297;-72
2022/08/02 12:45:48;;;;;;;3.17;1.07;;;;;;;;;;5039479;28;20228;-73
2022/08/02 12:48:16;;;;;;;1.60;1.00;;;;;;;;;;5043107;28;20676;-72
2022/08/02 12:50:43;;;;;;;2.33;1.10;;;;;;;;;;5040408;28;20238;-72
2022/08/02 12:53:12;;;;;;;3.90;1.20;;;;;;;;;;5041702;28;20210;-72
2022/08/02 12:55:49;;;;;;;1.83;1.00;;;;;;;;;;5042824;28;20226;-71
2022/08/02 12:58:16;;;;;;;1.57;1.00;;;;;;;;;;5040675;28;20295;-72
2022/08/02 13:00:44;;;;;;;2.33;0.90;;;;;;;;;;5039966;28;20203;-71
2022/08/02 13:03:12;;;;;;;1.43;0.97;;;;;;;;;;5040549;28;20292;-71
2022/08/02 13:05:40;;;;;;;2.13;1.07;;;;;;;;;;5039488;28;20219;-72
2022/08/02 13:08:07;;;;;;;2.17;1.17;;;;;;;;;;5040156;28;20225;-72
2022/08/02 13:10:34;;;;;;;2.20;1.10;;;;;;;;;;5039246;28;20229;-71
2022/08/02 13:13:02;;;;;;;1.87;1.00;;;;;;;;;;5039492;28;20207;-71
2022/08/02 13:15:31;;;;;;;2.10;1.00;;;;;;;;;;5040640;28;20199;-72
2022/08/02 13:18:00;;;;;;;2.03;1.60;;;;;;;;;;5038391;28;20274;-72
2022/08/02 13:20:27;;;;;;;1.83;1.20;;;;;;;;;;5035652;28;20197;-71
2022/08/02 13:22:54;;;;;;;1.67;1.30;;;;;;;;;;5042271;28;20298;-71
2022/08/02 13:25:22;;;;;;;2.27;1.20;;;;;;;;;;5036548;28;20287;-71
2022/08/02 13:27:49;;;;;;;1.50;1.10;;;;;;;;;;5039314;28;20232;-72
2022/08/02 13:30:17;;;;;;;4.77;1.40;;;;;;;;;;5041247;28;20219;-72
2022/08/02 13:32:45;;;;;;;1.50;1.03;;;;;;;;;;5041570;28;20206;-71
2022/08/02 13:35:12;;;;;;;2.33;1.30;;;;;;;;;;5034154;28;20573;-71
2022/08/02 13:37:40;;;;;;;3.17;1.17;;;;;;;;;;5034702;28;20210;-71
2022/08/02 13:40:08;;;;;;;3.37;1.30;;;;;;;;;;5040122;28;20221;-71
2022/08/02 13:42:35;;;;;;;2.13;1.27;;;;;;;;;;5039479;28;20213;-71
2022/08/02 13:45:02;;;;;;;1.77;1.20;;;;;;;;;;5039125;28;20199;-71
2022/08/02 13:47:31;;;;;;;1.70;1.17;;;;;;;;;;5042046;28;20281;-71
2022/08/02 13:49:58;;;;;;;2.40;1.40;;;;;;;;;;5036533;28;20324;-71
2022/08/02 13:52:25;;;;;;;4.20;1.43;;;;;;;;;;5036133;28;20220;-71
2022/08/02 13:54:52;;;;;;;2.17;1.27;;;;;;;;;;5039236;28;20212;-71
2022/08/02 13:57:20;;;;;;;4.77;1.70;;;;;;;;;;5039418;28;20235;-72
2022/08/02 13:59:47;;;;;;;2.47;1.30;;;;;;;;;;5040166;28;20233;-72
2022/08/02 14:02:14;;;;;;;1.97;1.47;;;;;;;;;;5040117;28;20212;-72
2022/08/02 14:04:43;;;;;;;5.23;1.40;;;;;;;;;;5037705;28;20202;-72
2022/08/02 14:07:10;;;;;;;4.10;1.50;;;;;;;;;;5038735;28;20330;-71
2022/08/02 14:09:37;;;;;;;8.13;1.30;;;;;;;;;;5037801;28;20711;-72
2022/08/02 14:12:05;;;;;;;2.40;1.40;;;;;;;;;;5043123;28;20293;-72
2022/08/02 14:14:32;;;;;;;3.33;1.23;;;;;;;;;;5044470;28;20212;-71
2022/08/02 14:16:59;;;;;;;3.57;1.20;;;;;;;;;;5041209;28;20488;-72
2022/08/02 14:19:26;;;;;;;3.93;1.40;;;;;;;;;;5042465;28;20570;-71
2022/08/02 14:21:55;;;;;;;3.00;1.40;;;;;;;;;;5037070;28;20201;-71
2022/08/02 14:24:22;;;;;;;1.80;1.30;;;;;;;;;;5038352;28;20240;-71
2022/08/02 14:26:50;;;;;;;2.00;1.10;;;;;;;;;;5037683;28;20321;-72
2022/08/02 14:29:17;;;;;;;5.33;1.50;;;;;;;;;;5036002;28;20223;-72
2022/08/02 14:31:45;;;;;;;1.90;1.40;;;;;;;;;;5045682;28;20643;-71
2022/08/02 14:34:12;;;;;;;3.47;1.20;;;;;;;;;;5046153;28;20237;-71
2022/08/02 14:36:39;;;;;;;1.40;1.20;;;;;;;;;;5042004;28;20223;-71
2022/08/02 14:39:08;;;;;;;4.57;1.50;;;;;;;;;;5038425;28;20699;-71
2022/08/02 14:41:36;;;;;;;1.70;1.13;;;;;;;;;;5040975;28;21817;-72
2022/08/02 14:44:03;;;;;;;2.33;1.20;;;;;;;;;;5044784;28;20214;-72
2022/08/02 14:46:31;;;;;;;2.77;1.27;;;;;;;;;;5046815;28;21246;-72
2022/08/02 14:49:00;;;;;;;2.70;1.33;;;;;;;;;;5046896;28;20202;-73
2022/08/02 14:51:27;;;;;;;5.87;1.73;;;;;;;;;;5043057;28;20217;-72
2022/08/02 14:53:54;;;;;;;3.50;1.60;;;;;;;;;;5044579;28;20657;-72
2022/08/02 14:56:23;;;;;;;1.70;1.20;;;;;;;;;;5045034;28;20219;-73